This is the latest recevied weather packets stored in our database for station/object DL9GJ-4. If no packets are shown the sender has not sent any weather packets the latest 10 day(s).
| Time | Temp. | Humidity | Pressure | Rain* | Wind** | Luminosity | Snow |
|---|---|---|---|---|---|---|---|
| 1788564826 | 22.78° C | 16% | 1017 hPa | 0 mm | - | - | - |
| 1788564464 | 22.78° C | 16% | 1017 hPa | 0 mm | - | - | - |
| 1788563018 | 22.78° C | 16% | 1017 hPa | 0 mm | - | - | - |
| 1788562654 | 22.78° C | 16% | 1017 hPa | 0 mm | - | - | - |
| 1788561966 | 22.78° C | 16% | 1017 hPa | 0 mm | - | - | - |
| 1788561933 | 22.78° C | 16% | 1017 hPa | 0 mm | - | - | - |
| 1788561566 | 22.78° C | 16% | 1017 hPa | 0 mm | - | - | - |
| 1788561203 | 23.33° C | 16% | 1017 hPa | 0 mm | - | - | - |
| 1788560482 | 23.33° C | 16% | 1017 hPa | 0 mm | - | - | - |
| 1788559756 | 23.33° C | 16% | 1017 hPa | 0 mm | - | - | - |
| 1788559032 | 23.33° C | 15% | 1017 hPa | 0 mm | - | - | - |
| 1788558306 | 23.33° C | 13% | 1017 hPa | 0 mm | - | - | - |
| 1788557943 | 23.33° C | 13% | 1017 hPa | 0 mm | - | - | - |
| 1788557580 | 23.33° C | 13% | 1017 hPa | 0 mm | - | - | - |
| 1788557217 | 23.33° C | 13% | 1017 hPa | 0 mm | - | - | - |
| 1788556491 | 23.89° C | 13% | 1017 hPa | 0 mm | - | - | - |
| 1788555406 | 23.89° C | 13% | 1017 hPa | 0 mm | - | - | - |
| 1788555046 | 23.89° C | 13% | 1017 hPa | 0 mm | - | - | - |
| 1788553961 | 23.89° C | 13% | 1017 hPa | 0 mm | - | - | - |
| 1788553598 | 23.89° C | 13% | 1017 hPa | 0 mm | - | - | - |
| 1788553237 | 23.33° C | 13% | 1017 hPa | 0 mm | - | - | - |
| 1788551786 | 22.22° C | 16% | 1017 hPa | 0 mm | - | - | - |
| 1788551060 | 21.67° C | 16% | 1017 hPa | 0 mm | - | - | - |
| 1788550336 | 19.44° C | 20% | 1017 hPa | 0 mm | - | - | - |
| 1788549972 | 19.44° C | 17% | 1016 hPa | 0 mm | - | - | - |
* Rain latest hour (hover to see other rain measurements)
** Current wind speed in m/s (hover to see current wind gust speed)